createdAt,value
2018-03-04T00:00:14.508Z,51.90
2018-03-04T00:02:42.499Z,50.70
2018-03-04T00:05:10.760Z,50.90
2018-03-04T00:07:39.754Z,50.40
2018-03-04T00:10:08.759Z,51.40
2018-03-04T00:12:37.040Z,51.40
2018-03-04T00:15:05.313Z,51.20
2018-03-04T00:17:33.698Z,51.20
2018-03-04T00:20:02.684Z,51.20
2018-03-04T00:22:40.859Z,51.20
2018-03-04T00:25:09.864Z,51.40
2018-03-04T00:27:38.121Z,51.50
2018-03-04T00:30:06.452Z,52.60
2018-03-04T00:32:34.677Z,52.60
2018-03-04T00:35:03.693Z,52.20
2018-03-04T00:37:31.935Z,52.20
2018-03-04T00:40:00.944Z,52.40
2018-03-04T00:42:29.201Z,51.80
2018-03-04T00:44:58.212Z,52.00
2018-03-04T00:47:26.476Z,52.00
2018-03-04T00:49:55.487Z,52.50
2018-03-04T00:52:23.721Z,52.40
2018-03-04T00:54:51.969Z,52.60
2018-03-04T00:57:20.199Z,52.70
2018-03-04T00:59:48.458Z,53.30
2018-03-04T01:02:17.459Z,53.30
2018-03-04T01:04:46.472Z,53.20
2018-03-04T01:07:14.725Z,53.20
2018-03-04T01:09:43.730Z,52.70
2018-03-04T01:12:11.976Z,52.60
2018-03-04T01:14:40.980Z,52.60
2018-03-04T01:17:09.376Z,52.60
2018-03-04T01:19:37.651Z,53.40
2018-03-04T01:22:05.909Z,54.10
2018-03-04T01:24:34.912Z,53.80
2018-03-04T01:27:03.156Z,53.80
2018-03-04T01:29:32.164Z,54.10
2018-03-04T01:32:01.177Z,54.00
2018-03-04T01:34:29.414Z,53.90
2018-03-04T01:36:58.430Z,54.00
2018-03-04T01:39:26.662Z,53.90
2018-03-04T01:41:54.917Z,53.90
2018-03-04T01:44:23.291Z,54.90
2018-03-04T01:46:51.536Z,54.70
2018-03-04T01:49:19.773Z,53.90
2018-03-04T01:51:52.616Z,54.90
2018-03-04T01:54:20.852Z,54.90
2018-03-04T01:56:49.105Z,54.90
2018-03-04T01:59:18.132Z,55.30
2018-03-04T02:01:46.388Z,55.30
2018-03-04T02:04:15.403Z,56.20
2018-03-04T02:06:43.667Z,56.10
2018-03-04T02:09:11.904Z,55.70
2018-03-04T02:11:40.151Z,56.10
2018-03-04T02:14:08.416Z,55.90
2018-03-04T02:16:36.751Z,56.10
2018-03-04T02:19:05.785Z,55.90
2018-03-04T02:21:34.021Z,55.90
2018-03-04T02:24:03.115Z,56.50
2018-03-04T02:26:32.139Z,56.40
2018-03-04T02:29:00.519Z,56.40
2018-03-04T02:31:28.760Z,56.50
2018-03-04T02:33:56.997Z,56.70
2018-03-04T02:36:25.233Z,56.80
2018-03-04T02:38:53.598Z,56.90
2018-03-04T02:41:21.868Z,56.90
2018-03-04T02:43:50.124Z,57.70
2018-03-04T02:46:19.120Z,58.10
2018-03-04T02:48:47.375Z,58.10
2018-03-04T02:51:16.418Z,58.10
2018-03-04T02:53:44.681Z,58.00
2018-03-04T02:56:12.948Z,57.50
2018-03-04T02:58:41.204Z,57.20
2018-03-04T03:01:10.274Z,57.70
2018-03-04T03:03:39.298Z,58.20
2018-03-04T03:06:07.537Z,58.20
2018-03-04T03:08:35.805Z,58.00
2018-03-04T03:11:04.022Z,58.20
2018-03-04T03:13:32.264Z,58.20
2018-03-04T03:16:01.275Z,58.80
2018-03-04T03:18:30.305Z,59.10
2018-03-04T03:20:58.546Z,59.00
2018-03-04T03:23:26.800Z,59.10
2018-03-04T03:25:55.829Z,58.80
2018-03-04T03:28:24.061Z,58.70
2018-03-04T03:30:53.091Z,59.30
2018-03-04T03:33:21.430Z,59.30
2018-03-04T03:35:49.660Z,59.10
2018-03-04T03:38:17.904Z,59.50
2018-03-04T03:40:46.152Z,59.00
2018-03-04T03:43:15.161Z,59.70
2018-03-04T03:45:44.189Z,59.70
2018-03-04T03:48:12.413Z,59.60
2018-03-04T03:50:41.430Z,60.10
2018-03-04T03:53:09.668Z,60.10
2018-03-04T03:55:37.907Z,60.00
2018-03-04T03:58:06.201Z,60.60
2018-03-04T04:00:34.544Z,60.50
2018-03-04T04:03:02.782Z,60.40
2018-03-04T04:05:31.816Z,60.10
2018-03-04T04:08:00.091Z,60.10
2018-03-04T04:10:28.482Z,60.10
2018-03-04T04:12:56.711Z,60.60
2018-03-04T04:15:24.964Z,60.50
2018-03-04T04:17:53.969Z,60.30
2018-03-04T04:20:22.984Z,59.90
2018-03-04T04:22:51.215Z,59.80
2018-03-04T04:25:20.248Z,60.10
2018-03-04T04:27:48.532Z,60.10
2018-03-04T04:30:16.775Z,60.60
2018-03-04T04:32:45.771Z,60.40
2018-03-04T04:35:14.030Z,60.40
2018-03-04T04:37:43.020Z,61.20
2018-03-04T04:40:12.052Z,60.90
2018-03-04T04:42:40.311Z,60.90
2018-03-04T04:45:08.532Z,61.30
2018-03-04T04:47:36.818Z,60.80
2018-03-04T04:50:05.150Z,61.40
2018-03-04T04:52:33.399Z,61.00
2018-03-04T04:55:02.392Z,62.10
2018-03-04T04:57:30.647Z,62.00
2018-03-04T04:59:59.680Z,62.20
2018-03-04T05:02:28.496Z,62.10
2018-03-04T05:04:56.736Z,62.50
2018-03-04T05:07:24.984Z,62.30
2018-03-04T05:09:53.988Z,63.00
2018-03-04T05:12:22.285Z,62.90
2018-03-04T05:14:50.519Z,63.20
2018-03-04T05:17:19.545Z,63.80
2018-03-04T05:19:47.780Z,63.70
2018-03-04T05:22:16.793Z,64.10
2018-03-04T05:24:45.030Z,64.10
2018-03-04T05:27:13.278Z,64.30
2018-03-04T05:29:41.512Z,64.40
2018-03-04T05:32:10.183Z,65.00
2018-03-04T05:34:38.417Z,65.10
2018-03-04T05:37:06.664Z,65.50
2018-03-04T05:39:34.901Z,65.90
2018-03-04T05:42:03.916Z,65.50
2018-03-04T05:44:32.198Z,65.50
2018-03-04T05:47:00.466Z,65.70
2018-03-04T05:49:28.780Z,65.80
2018-03-04T05:51:57.111Z,65.90
2018-03-04T05:54:25.354Z,67.10
2018-03-04T05:56:53.588Z,66.50
2018-03-04T05:59:21.836Z,66.40
2018-03-04T06:01:50.953Z,66.60
2018-03-04T06:04:19.189Z,66.70
2018-03-04T06:06:48.191Z,66.90
2018-03-04T06:09:16.445Z,66.80
2018-03-04T06:11:45.473Z,67.30
2018-03-04T06:14:13.744Z,67.20
2018-03-04T06:16:41.979Z,67.70
2018-03-04T06:19:10.996Z,67.50
2018-03-04T06:21:39.235Z,67.40
2018-03-04T06:24:07.560Z,68.00
2018-03-04T06:26:35.804Z,68.00
2018-03-04T06:29:04.834Z,68.00
2018-03-04T06:31:33.069Z,68.00
2018-03-04T06:34:02.086Z,68.40
2018-03-04T06:36:30.332Z,68.30
2018-03-04T06:38:59.350Z,68.40
2018-03-04T06:41:27.588Z,68.30
2018-03-04T06:43:55.836Z,68.80
2018-03-04T06:46:24.077Z,70.00
2018-03-04T06:48:52.334Z,69.10
2018-03-04T06:51:20.563Z,68.50
2018-03-04T06:53:48.896Z,68.60
2018-03-04T06:56:17.136Z,68.20
2018-03-04T06:58:46.156Z,68.10
2018-03-04T07:01:14.459Z,68.10
2018-03-04T07:03:42.715Z,68.40
2018-03-04T07:06:10.948Z,68.50
2018-03-04T07:08:40.020Z,67.90
2018-03-04T07:11:09.378Z,67.80
2018-03-04T07:13:38.995Z,67.70
2018-03-04T07:16:08.188Z,68.00
2018-03-04T07:18:36.486Z,68.10
2018-03-04T07:21:04.698Z,67.50
2018-03-04T07:23:33.709Z,67.20
2018-03-04T07:26:02.000Z,67.10
2018-03-04T07:28:30.256Z,66.10
2018-03-04T07:30:58.499Z,66.30
2018-03-04T07:33:26.840Z,66.50
2018-03-04T07:35:55.080Z,66.40
2018-03-04T07:38:23.331Z,67.40
2018-03-04T07:40:52.329Z,66.50
2018-03-04T07:43:21.361Z,66.60
2018-03-04T07:45:49.592Z,66.40
2018-03-04T07:48:18.608Z,67.30
2018-03-04T07:50:46.845Z,67.20
2018-03-04T07:53:15.109Z,67.40
2018-03-04T07:55:43.340Z,66.90
2018-03-04T07:58:11.603Z,67.50
2018-03-04T08:00:39.841Z,67.10
2018-03-04T08:03:08.840Z,66.90
2018-03-04T08:05:37.860Z,67.30
2018-03-04T08:08:06.139Z,67.20
2018-03-04T08:10:34.398Z,67.30
2018-03-04T08:13:03.394Z,67.30
2018-03-04T08:15:31.656Z,66.60
2018-03-04T08:18:00.676Z,67.10
2018-03-04T08:20:28.920Z,67.10
2018-03-04T08:22:57.933Z,67.20
2018-03-04T08:25:36.528Z,67.20
2018-03-04T08:28:17.408Z,67.10
2018-03-04T08:30:45.656Z,66.90
2018-03-04T08:33:13.889Z,67.00
2018-03-04T08:35:42.145Z,66.60
2018-03-04T08:38:10.424Z,66.60
2018-03-04T08:40:38.678Z,66.30
2018-03-04T08:43:07.961Z,64.90
2018-03-04T08:45:37.063Z,64.70
2018-03-04T08:48:06.096Z,63.30
2018-03-04T08:50:34.339Z,63.20
2018-03-04T08:53:02.580Z,62.70
2018-03-04T08:55:32.327Z,60.90
2018-03-04T08:58:00.560Z,60.90
2018-03-04T09:00:28.868Z,59.90
2018-03-04T09:02:57.111Z,60.00
2018-03-04T09:05:26.206Z,59.20
2018-03-04T09:07:54.494Z,59.20
2018-03-04T09:10:22.966Z,59.30
2018-03-04T09:12:51.168Z,58.60
2018-03-04T09:15:19.416Z,58.20
2018-03-04T09:17:48.407Z,56.60
2018-03-04T09:20:17.416Z,56.60
2018-03-04T09:22:46.415Z,55.90
2018-03-04T09:25:14.664Z,55.90
2018-03-04T09:27:43.656Z,54.60
2018-03-04T09:30:12.676Z,54.20
2018-03-04T09:32:40.957Z,54.20
2018-03-04T09:35:09.212Z,52.80
2018-03-04T09:37:38.212Z,52.30
2018-03-04T09:40:06.498Z,52.30
2018-03-04T09:42:34.713Z,53.10
2018-03-04T09:45:02.960Z,52.80
2018-03-04T09:47:29.720Z,53.60
2018-03-04T09:49:55.810Z,55.10
2018-03-04T09:52:21.920Z,55.00
2018-03-04T09:54:48.011Z,56.10
2018-03-04T09:57:14.816Z,58.40
2018-03-04T09:59:40.896Z,58.30
2018-03-04T10:02:07.082Z,57.90
2018-03-04T10:04:33.149Z,58.50
2018-03-04T10:07:06.409Z,59.20
2018-03-04T10:09:33.231Z,58.90
2018-03-04T10:11:59.297Z,58.80
2018-03-04T10:14:25.385Z,58.90
2018-03-04T10:16:51.464Z,59.20
2018-03-04T10:19:17.725Z,58.80
2018-03-04T10:21:43.916Z,59.30
2018-03-04T10:24:09.984Z,58.90
2018-03-04T10:26:36.100Z,58.50
2018-03-04T10:29:02.161Z,59.10
2018-03-04T10:31:28.563Z,58.40
2018-03-04T10:33:54.593Z,58.20
2018-03-04T10:36:20.665Z,59.70
2018-03-04T10:38:46.748Z,59.10
2018-03-04T10:41:13.567Z,58.10
2018-03-04T10:43:39.640Z,58.10
2018-03-04T10:46:05.804Z,58.00
2018-03-04T10:48:32.199Z,58.50
2018-03-04T10:50:58.376Z,59.00
2018-03-04T10:53:24.484Z,59.10
2018-03-04T10:55:50.560Z,59.20
2018-03-04T10:58:16.632Z,58.10
2018-03-04T11:00:44.488Z,58.10
2018-03-04T11:03:10.565Z,58.70
2018-03-04T11:05:36.661Z,59.10
2018-03-04T11:08:03.676Z,60.30
2018-03-04T11:10:29.763Z,60.30
2018-03-04T11:12:55.832Z,59.90
2018-03-04T11:15:21.956Z,60.50
2018-03-04T11:17:47.976Z,60.70
2018-03-04T11:20:14.054Z,60.00
2018-03-04T11:22:40.111Z,59.80
2018-03-04T11:25:06.196Z,60.50
2018-03-04T11:27:32.259Z,60.70
2018-03-04T11:29:59.112Z,60.40
2018-03-04T11:32:25.204Z,60.20
2018-03-04T11:34:51.272Z,60.60
2018-03-04T11:37:17.343Z,60.80
2018-03-04T11:39:43.415Z,61.20
2018-03-04T11:42:09.492Z,60.80
2018-03-04T11:44:35.565Z,59.30
2018-03-04T11:47:01.644Z,60.30
2018-03-04T11:49:27.720Z,59.50
2018-03-04T11:51:54.728Z,59.10
2018-03-04T11:54:20.835Z,59.10
2018-03-04T11:56:46.912Z,59.00
2018-03-04T11:59:13.711Z,59.60
2018-03-04T12:01:39.788Z,59.50
2018-03-04T12:04:05.860Z,58.40
2018-03-04T12:06:31.940Z,58.10
2018-03-04T12:08:58.004Z,57.80
2018-03-04T12:11:24.073Z,57.90
2018-03-04T12:13:50.872Z,58.20
2018-03-04T12:16:16.955Z,58.20
2018-03-04T12:18:43.240Z,58.10
2018-03-04T12:21:09.320Z,58.00
2018-03-04T12:23:35.539Z,57.90
2018-03-04T12:26:01.629Z,57.70
2018-03-04T12:28:28.431Z,57.10
2018-03-04T12:30:54.563Z,57.00
2018-03-04T12:33:20.632Z,56.50
2018-03-04T12:35:46.727Z,56.80
2018-03-04T12:38:12.792Z,54.40
2018-03-04T12:40:38.856Z,54.20
2018-03-04T12:43:04.932Z,53.00
2018-03-04T12:45:31.007Z,52.50
2018-03-04T12:47:57.080Z,52.40
2018-03-04T12:50:23.148Z,52.70
2018-03-04T12:52:49.228Z,51.20
2018-03-04T12:55:15.505Z,49.70
2018-03-04T12:57:41.578Z,49.60
2018-03-04T13:00:07.655Z,50.30
2018-03-04T13:02:33.733Z,50.40
2018-03-04T13:04:59.792Z,51.10
2018-03-04T13:07:25.863Z,52.70
2018-03-04T13:09:52.859Z,53.20
2018-03-04T13:12:18.937Z,53.80
2018-03-04T13:14:45.000Z,53.00
2018-03-04T13:17:11.120Z,52.70
2018-03-04T13:19:37.192Z,53.50
2018-03-04T13:22:03.279Z,54.80
2018-03-04T13:24:29.344Z,55.50
2018-03-04T13:26:55.637Z,55.40
2018-03-04T13:29:21.703Z,55.00
2018-03-04T13:31:47.779Z,55.10
2018-03-04T13:34:13.860Z,55.40
2018-03-04T13:36:39.988Z,55.50
2018-03-04T13:39:06.055Z,55.90
2018-03-04T13:41:32.132Z,56.20
2018-03-04T13:43:58.274Z,55.90
2018-03-04T13:46:24.528Z,56.20
2018-03-04T13:48:51.488Z,56.30
2018-03-04T13:51:18.303Z,56.80
2018-03-04T13:53:44.401Z,56.70
2018-03-04T13:56:10.472Z,55.90
2018-03-04T13:58:37.295Z,56.20
2018-03-04T14:01:03.360Z,56.20
2018-03-04T14:03:29.441Z,56.60
2018-03-04T14:05:56.248Z,56.40
2018-03-04T14:08:22.549Z,56.50
2018-03-04T14:10:48.676Z,57.00
2018-03-04T14:13:14.828Z,56.80
2018-03-04T14:15:40.899Z,56.20
2018-03-04T14:18:07.920Z,56.40
2018-03-04T14:20:33.984Z,56.30
2018-03-04T14:23:00.129Z,57.20
2018-03-04T14:25:26.204Z,56.50
2018-03-04T14:27:53.756Z,56.10
2018-03-04T14:30:19.812Z,56.10
2018-03-04T14:32:45.908Z,56.60
2018-03-04T14:35:11.983Z,57.50
2018-03-04T14:37:38.068Z,56.90
2018-03-04T14:40:04.964Z,57.00
2018-03-04T14:42:31.280Z,57.00
2018-03-04T14:44:57.359Z,57.50
2018-03-04T14:47:24.349Z,57.30
2018-03-04T14:49:50.451Z,57.20
2018-03-04T14:52:16.536Z,58.10
2018-03-04T14:54:42.597Z,58.20
2018-03-04T14:57:08.680Z,58.30
2018-03-04T14:59:34.748Z,58.40
2018-03-04T15:02:00.836Z,58.10
2018-03-04T15:04:27.869Z,59.00
2018-03-04T15:06:54.687Z,59.40
2018-03-04T15:09:20.768Z,59.40
2018-03-04T15:11:46.839Z,59.20
2018-03-04T15:14:12.932Z,59.20
2018-03-04T15:16:38.990Z,59.20
2018-03-04T15:19:05.402Z,59.50
2018-03-04T15:21:31.471Z,59.50
2018-03-04T15:23:58.311Z,60.80
2018-03-04T15:26:25.316Z,60.40
2018-03-04T15:28:51.387Z,60.40
2018-03-04T15:31:18.204Z,60.50
2018-03-04T15:33:44.378Z,60.40
2018-03-04T15:36:10.682Z,60.90
2018-03-04T15:38:36.780Z,60.90
2018-03-04T15:41:02.850Z,61.00
2018-03-04T15:43:28.944Z,60.90
2018-03-04T15:45:55.750Z,60.90
2018-03-04T15:48:21.919Z,60.80
2018-03-04T15:50:48.011Z,61.50
2018-03-04T15:53:14.108Z,60.70
2018-03-04T15:55:40.219Z,60.70
2018-03-04T15:58:07.112Z,61.10
2018-03-04T16:00:34.005Z,61.20
2018-03-04T16:03:00.109Z,61.20
2018-03-04T16:05:26.995Z,62.10
2018-03-04T16:07:53.068Z,62.00
2018-03-04T16:10:19.132Z,62.60
2018-03-04T16:12:45.219Z,63.30
2018-03-04T16:15:11.295Z,63.80
2018-03-04T16:17:38.895Z,64.30
2018-03-04T16:20:05.012Z,64.30
2018-03-04T16:22:31.815Z,65.40
2018-03-04T16:24:57.971Z,65.40
2018-03-04T16:27:24.771Z,66.70
2018-03-04T16:29:50.848Z,66.60
2018-03-04T16:32:16.950Z,66.80
2018-03-04T16:34:43.780Z,67.50
2018-03-04T16:37:09.874Z,67.40
2018-03-04T16:39:35.925Z,67.90
2018-03-04T16:42:01.997Z,68.20
2018-03-04T16:44:28.087Z,68.10
2018-03-04T16:46:54.891Z,68.10
2018-03-04T16:49:21.072Z,68.10
2018-03-04T16:51:47.178Z,68.40
2018-03-04T16:54:13.313Z,68.70
2018-03-04T16:56:39.502Z,69.00
2018-03-04T16:59:05.629Z,69.30
2018-03-04T17:01:31.712Z,69.40
2018-03-04T17:03:57.788Z,69.90
2018-03-04T17:06:23.863Z,70.30
2018-03-04T17:08:49.925Z,70.90
2018-03-04T17:11:16.293Z,71.40
2018-03-04T17:13:42.715Z,71.70
2018-03-04T17:16:09.571Z,71.80
2018-03-04T17:18:36.533Z,71.80
2018-03-04T17:21:02.622Z,71.80
2018-03-04T17:23:29.428Z,71.80
2018-03-04T17:25:55.647Z,71.80
2018-03-04T17:28:21.768Z,71.90
2018-03-04T17:30:47.903Z,72.30
2018-03-04T17:33:13.983Z,72.20
2018-03-04T17:35:40.056Z,72.20
2018-03-04T17:38:06.143Z,72.30
2018-03-04T17:40:32.243Z,72.50
2018-03-04T17:42:58.313Z,72.70
2018-03-04T17:45:24.371Z,72.80
2018-03-04T17:47:51.273Z,73.20
2018-03-04T17:50:17.360Z,73.20
2018-03-04T17:52:43.437Z,73.60
2018-03-04T17:55:09.504Z,73.60
2018-03-04T17:57:35.588Z,73.80
2018-03-04T18:00:01.660Z,73.70
2018-03-04T18:02:28.173Z,73.60
2018-03-04T18:04:54.239Z,73.60
2018-03-04T18:07:20.319Z,73.80
2018-03-04T18:09:46.383Z,73.80
2018-03-04T18:12:12.464Z,74.00
2018-03-04T18:14:38.519Z,74.00
2018-03-04T18:17:04.604Z,74.30
2018-03-04T18:19:31.415Z,74.70
2018-03-04T18:21:57.491Z,74.70
2018-03-04T18:24:23.555Z,74.50
2018-03-04T18:26:49.628Z,74.60
2018-03-04T18:29:15.689Z,74.80
2018-03-04T18:31:41.784Z,74.60
2018-03-04T18:34:07.932Z,74.50
2018-03-04T18:36:34.001Z,74.50
2018-03-04T18:39:00.835Z,74.70
2018-03-04T18:41:27.633Z,74.80
2018-03-04T18:43:53.738Z,75.50
2018-03-04T18:46:19.784Z,74.90
2018-03-04T18:48:45.864Z,74.80
2018-03-04T18:51:11.925Z,74.90
2018-03-04T18:53:38.000Z,74.80
2018-03-04T18:56:04.805Z,75.20
2018-03-04T18:58:30.889Z,75.10
2018-03-04T19:00:56.956Z,75.10
2018-03-04T19:03:23.032Z,75.20
2018-03-04T19:05:49.096Z,75.40
2018-03-04T19:08:15.175Z,75.40
2018-03-04T19:10:41.251Z,75.70
2018-03-04T19:13:07.333Z,75.90
2018-03-04T19:15:33.393Z,75.70
2018-03-04T19:17:59.480Z,75.70
2018-03-04T19:20:25.543Z,75.80
2018-03-04T19:22:51.621Z,76.10
2018-03-04T19:25:17.704Z,76.30
2018-03-04T19:27:44.520Z,76.60
2018-03-04T19:30:10.596Z,76.60
2018-03-04T19:32:36.679Z,76.60
2018-03-04T19:35:02.758Z,76.60
2018-03-04T19:37:28.825Z,76.60
2018-03-04T19:39:54.913Z,76.80
2018-03-04T19:42:20.998Z,77.80
2018-03-04T19:44:47.074Z,77.20
2018-03-04T19:47:13.144Z,77.30
2018-03-04T19:49:39.237Z,77.50
2018-03-04T19:52:05.380Z,77.50
2018-03-04T19:54:32.196Z,77.80
2018-03-04T19:56:58.257Z,77.80
2018-03-04T19:59:24.348Z,77.70
2018-03-04T20:01:51.891Z,78.50
2018-03-04T20:04:18.010Z,78.40
2018-03-04T20:06:44.157Z,78.40
2018-03-04T20:09:10.236Z,78.50
2018-03-04T20:11:36.307Z,79.00
2018-03-04T20:14:02.384Z,79.20
2018-03-04T20:16:28.489Z,80.20
2018-03-04T20:18:54.568Z,79.40
2018-03-04T20:21:22.119Z,79.80
2018-03-04T20:23:49.684Z,79.40
2018-03-04T20:26:15.760Z,79.30
2018-03-04T20:28:41.828Z,79.70
2018-03-04T20:31:07.896Z,78.10
2018-03-04T20:33:34.736Z,78.90
2018-03-04T20:36:00.819Z,78.80
2018-03-04T20:38:26.908Z,78.80
2018-03-04T20:40:52.983Z,79.20
2018-03-04T20:43:19.780Z,79.20
2018-03-04T20:45:45.867Z,79.10
2018-03-04T20:48:11.928Z,79.20
2018-03-04T20:50:38.012Z,79.30
2018-03-04T20:53:04.076Z,79.20
2018-03-04T20:55:30.162Z,80.30
2018-03-04T20:57:56.244Z,80.40
2018-03-04T21:00:22.323Z,80.00
2018-03-04T21:02:48.397Z,81.10
2018-03-04T21:05:15.219Z,82.00
2018-03-04T21:07:41.288Z,82.00
2018-03-04T21:10:07.365Z,82.00
2018-03-04T21:12:33.444Z,81.60
2018-03-04T21:14:59.530Z,80.40
2018-03-04T21:17:25.592Z,80.30
2018-03-04T21:19:51.681Z,79.30
2018-03-04T21:22:18.488Z,80.00
2018-03-04T21:24:46.072Z,79.80
2018-03-04T21:27:12.183Z,79.80
2018-03-04T21:29:38.272Z,79.10
2018-03-04T21:32:04.351Z,79.10
2018-03-04T21:34:31.191Z,79.60
2018-03-04T21:36:58.009Z,80.00
2018-03-04T21:39:24.084Z,80.00
2018-03-04T21:41:50.860Z,80.00
2018-03-04T21:44:16.940Z,80.00
2018-03-04T21:46:43.008Z,80.00
2018-03-04T21:49:09.085Z,80.10
2018-03-04T21:51:35.155Z,80.40
2018-03-04T21:54:01.223Z,80.40
2018-03-04T21:56:27.320Z,80.40
2018-03-04T21:58:53.383Z,81.00
2018-03-04T22:01:19.464Z,80.90
2018-03-04T22:03:45.537Z,80.10
2018-03-04T22:06:11.620Z,80.40
2018-03-04T22:08:37.658Z,79.30
2018-03-04T22:11:03.748Z,78.50
2018-03-04T22:13:29.824Z,78.70
2018-03-04T22:15:55.905Z,77.70
2018-03-04T22:18:22.721Z,77.60
2018-03-04T22:20:48.804Z,77.50
2018-03-04T22:23:14.868Z,77.30
2018-03-04T22:25:40.982Z,77.60
2018-03-04T22:28:07.041Z,77.70
2018-03-04T22:30:33.116Z,77.60
2018-03-04T22:32:59.196Z,77.60
2018-03-04T22:35:26.038Z,78.00
2018-03-04T22:37:52.844Z,78.00
2018-03-04T22:40:18.924Z,78.00
2018-03-04T22:42:44.988Z,78.10
2018-03-04T22:45:11.068Z,78.10
2018-03-04T22:47:37.848Z,78.20
2018-03-04T22:50:03.906Z,78.10
2018-03-04T22:52:30.715Z,78.50
2018-03-04T22:54:56.772Z,79.10
2018-03-04T22:57:23.636Z,79.30
2018-03-04T22:59:49.675Z,79.30
2018-03-04T23:02:15.755Z,79.30
2018-03-04T23:04:42.580Z,78.80
2018-03-04T23:07:08.660Z,78.70
2018-03-04T23:09:34.700Z,78.30
2018-03-04T23:12:00.777Z,77.80
2018-03-04T23:14:26.847Z,77.10
2018-03-04T23:16:52.892Z,76.90
2018-03-04T23:19:18.964Z,76.50
2018-03-04T23:21:45.037Z,77.20
2018-03-04T23:24:11.092Z,75.90
2018-03-04T23:26:37.143Z,76.00
2018-03-04T23:29:03.234Z,75.80
2018-03-04T23:31:30.763Z,76.20
2018-03-04T23:33:56.812Z,76.10
2018-03-04T23:36:22.868Z,76.50
2018-03-04T23:38:48.899Z,77.20
2018-03-04T23:41:14.977Z,78.00
2018-03-04T23:43:41.016Z,78.40
2018-03-04T23:46:07.812Z,78.20
2018-03-04T23:48:33.844Z,78.10
2018-03-04T23:50:59.915Z,78.60
2018-03-04T23:53:26.691Z,79.70
2018-03-04T23:55:52.770Z,79.70
2018-03-04T23:58:19.560Z,79.80
